sensor_id;sensor_type;location;lat;lon;timestamp;temperature;humidity
73955;DHT22;62306;52.516;13.290;2023-04-16T00:01:11;10.10;99.90
73955;DHT22;62306;52.516;13.290;2023-04-16T00:03:38;10.10;99.90
73955;DHT22;62306;52.516;13.290;2023-04-16T00:06:05;10.10;99.90
73955;DHT22;62306;52.516;13.290;2023-04-16T00:08:33;10.10;99.90
73955;DHT22;62306;52.516;13.290;2023-04-16T00:11:01;10.10;99.90
73955;DHT22;62306;52.516;13.290;2023-04-16T00:13:28;10.10;99.90
73955;DHT22;62306;52.516;13.290;2023-04-16T00:15:55;10.10;99.90
73955;DHT22;62306;52.516;13.290;2023-04-16T00:18:23;10.20;99.90
73955;DHT22;62306;52.516;13.290;2023-04-16T00:20:50;10.20;99.90
73955;DHT22;62306;52.516;13.290;2023-04-16T00:23:18;10.20;99.90
73955;DHT22;62306;52.516;13.290;2023-04-16T00:25:47;10.10;99.90
73955;DHT22;62306;52.516;13.290;2023-04-16T00:28:13;10.20;99.90
73955;DHT22;62306;52.516;13.290;2023-04-16T00:30:40;10.20;99.90
73955;DHT22;62306;52.516;13.290;2023-04-16T00:33:08;10.10;99.90
73955;DHT22;62306;52.516;13.290;2023-04-16T00:35:35;10.10;99.90
73955;DHT22;62306;52.516;13.290;2023-04-16T00:38:02;10.10;99.90
73955;DHT22;62306;52.516;13.290;2023-04-16T00:40:29;10.10;99.90
73955;DHT22;62306;52.516;13.290;2023-04-16T00:42:57;10.10;99.90
73955;DHT22;62306;52.516;13.290;2023-04-16T00:45:24;10.10;99.90
73955;DHT22;62306;52.516;13.290;2023-04-16T00:47:51;10.10;99.90
73955;DHT22;62306;52.516;13.290;2023-04-16T00:50:18;10.10;99.90
73955;DHT22;62306;52.516;13.290;2023-04-16T00:52:46;10.10;99.90
73955;DHT22;62306;52.516;13.290;2023-04-16T00:55:14;10.10;99.90
73955;DHT22;62306;52.516;13.290;2023-04-16T00:57:43;10.10;99.90
73955;DHT22;62306;52.516;13.290;2023-04-16T01:00:12;10.10;99.90
73955;DHT22;62306;52.516;13.290;2023-04-16T01:02:39;10.10;99.90
73955;DHT22;62306;52.516;13.290;2023-04-16T01:05:06;10.10;99.90
73955;DHT22;62306;52.516;13.290;2023-04-16T01:07:33;10.10;99.90
73955;DHT22;62306;52.516;13.290;2023-04-16T01:10:01;10.10;99.90
73955;DHT22;62306;52.516;13.290;2023-04-16T01:12:28;10.10;99.90
73955;DHT22;62306;52.516;13.290;2023-04-16T01:14:55;10.00;99.90
73955;DHT22;62306;52.516;13.290;2023-04-16T01:17:23;10.00;99.90
73955;DHT22;62306;52.516;13.290;2023-04-16T01:19:50;10.00;99.90
73955;DHT22;62306;52.516;13.290;2023-04-16T01:22:19;10.00;99.90
73955;DHT22;62306;52.516;13.290;2023-04-16T01:24:45;10.00;99.90
73955;DHT22;62306;52.516;13.290;2023-04-16T01:27:12;10.00;99.90
73955;DHT22;62306;52.516;13.290;2023-04-16T01:29:40;10.00;99.90
73955;DHT22;62306;52.516;13.290;2023-04-16T01:32:07;10.00;99.90
73955;DHT22;62306;52.516;13.290;2023-04-16T01:34:34;10.00;99.90
73955;DHT22;62306;52.516;13.290;2023-04-16T01:37:03;10.00;99.90
73955;DHT22;62306;52.516;13.290;2023-04-16T01:39:31;10.00;99.90
73955;DHT22;62306;52.516;13.290;2023-04-16T01:41:58;10.00;99.90
73955;DHT22;62306;52.516;13.290;2023-04-16T01:44:25;10.00;99.90
73955;DHT22;62306;52.516;13.290;2023-04-16T01:46:52;9.90;99.90
73955;DHT22;62306;52.516;13.290;2023-04-16T01:49:19;10.00;99.90
73955;DHT22;62306;52.516;13.290;2023-04-16T01:51:46;10.00;99.90
73955;DHT22;62306;52.516;13.290;2023-04-16T01:54:13;10.00;99.90
73955;DHT22;62306;52.516;13.290;2023-04-16T01:56:42;10.00;99.90
73955;DHT22;62306;52.516;13.290;2023-04-16T01:59:08;10.00;99.90
73955;DHT22;62306;52.516;13.290;2023-04-16T02:01:36;10.00;99.90
73955;DHT22;62306;52.516;13.290;2023-04-16T02:04:04;9.90;99.90
73955;DHT22;62306;52.516;13.290;2023-04-16T02:06:32;9.90;99.90
73955;DHT22;62306;52.516;13.290;2023-04-16T02:08:59;9.90;99.90
73955;DHT22;62306;52.516;13.290;2023-04-16T02:11:25;9.90;99.90
73955;DHT22;62306;52.516;13.290;2023-04-16T02:13:54;9.90;99.90
73955;DHT22;62306;52.516;13.290;2023-04-16T02:16:21;9.80;99.90
73955;DHT22;62306;52.516;13.290;2023-04-16T02:18:48;9.80;99.90
73955;DHT22;62306;52.516;13.290;2023-04-16T02:21:15;9.90;99.90
73955;DHT22;62306;52.516;13.290;2023-04-16T02:23:44;9.90;99.90
73955;DHT22;62306;52.516;13.290;2023-04-16T02:26:16;9.80;99.90
73955;DHT22;62306;52.516;13.290;2023-04-16T02:28:43;9.80;99.90
73955;DHT22;62306;52.516;13.290;2023-04-16T02:31:11;9.80;99.90
73955;DHT22;62306;52.516;13.290;2023-04-16T02:33:38;9.80;99.90
73955;DHT22;62306;52.516;13.290;2023-04-16T02:36:06;9.80;99.90
73955;DHT22;62306;52.516;13.290;2023-04-16T02:38:35;9.70;99.90
73955;DHT22;62306;52.516;13.290;2023-04-16T02:41:02;9.70;99.90
73955;DHT22;62306;52.516;13.290;2023-04-16T02:43:29;9.70;99.90
73955;DHT22;62306;52.516;13.290;2023-04-16T02:45:56;9.80;99.90
73955;DHT22;62306;52.516;13.290;2023-04-16T02:48:25;9.70;99.90
73955;DHT22;62306;52.516;13.290;2023-04-16T02:50:52;9.70;99.90
73955;DHT22;62306;52.516;13.290;2023-04-16T02:53:18;9.70;99.90
73955;DHT22;62306;52.516;13.290;2023-04-16T02:55:49;9.70;99.90
73955;DHT22;62306;52.516;13.290;2023-04-16T02:58:17;9.60;99.90
73955;DHT22;62306;52.516;13.290;2023-04-16T03:00:44;9.60;99.90
73955;DHT22;62306;52.516;13.290;2023-04-16T03:03:11;9.70;99.90
73955;DHT22;62306;52.516;13.290;2023-04-16T03:05:39;9.70;99.90
73955;DHT22;62306;52.516;13.290;2023-04-16T03:08:06;9.60;99.90
73955;DHT22;62306;52.516;13.290;2023-04-16T03:10:34;9.50;99.90
73955;DHT22;62306;52.516;13.290;2023-04-16T03:13:01;9.50;99.90
73955;DHT22;62306;52.516;13.290;2023-04-16T03:15:28;9.50;99.90
73955;DHT22;62306;52.516;13.290;2023-04-16T03:17:55;9.50;99.90
73955;DHT22;62306;52.516;13.290;2023-04-16T03:20:22;9.40;99.90
73955;DHT22;62306;52.516;13.290;2023-04-16T03:22:50;9.40;99.90
73955;DHT22;62306;52.516;13.290;2023-04-16T03:25:18;9.50;99.90
73955;DHT22;62306;52.516;13.290;2023-04-16T03:27:44;9.40;99.90
73955;DHT22;62306;52.516;13.290;2023-04-16T03:30:13;9.40;99.90
73955;DHT22;62306;52.516;13.290;2023-04-16T03:32:41;9.40;99.90
73955;DHT22;62306;52.516;13.290;2023-04-16T03:35:08;9.40;99.90
73955;DHT22;62306;52.516;13.290;2023-04-16T03:37:35;9.30;99.90
73955;DHT22;62306;52.516;13.290;2023-04-16T03:40:04;9.30;99.90
73955;DHT22;62306;52.516;13.290;2023-04-16T03:42:31;9.30;99.90
73955;DHT22;62306;52.516;13.290;2023-04-16T03:44:58;9.30;99.90
73955;DHT22;62306;52.516;13.290;2023-04-16T03:47:25;9.30;99.90
73955;DHT22;62306;52.516;13.290;2023-04-16T03:49:52;9.30;99.90
73955;DHT22;62306;52.516;13.290;2023-04-16T03:52:20;9.30;99.90
73955;DHT22;62306;52.516;13.290;2023-04-16T03:54:47;9.30;99.90
73955;DHT22;62306;52.516;13.290;2023-04-16T03:57:15;9.30;99.90
73955;DHT22;62306;52.516;13.290;2023-04-16T03:59:42;9.30;99.90
73955;DHT22;62306;52.516;13.290;2023-04-16T04:02:09;9.30;99.90
73955;DHT22;62306;52.516;13.290;2023-04-16T04:04:36;9.30;99.90
73955;DHT22;62306;52.516;13.290;2023-04-16T04:07:03;9.30;99.90
73955;DHT22;62306;52.516;13.290;2023-04-16T04:09:30;9.30;99.90
73955;DHT22;62306;52.516;13.290;2023-04-16T04:11:58;9.30;99.90
73955;DHT22;62306;52.516;13.290;2023-04-16T04:14:26;9.30;99.90
73955;DHT22;62306;52.516;13.290;2023-04-16T04:16:53;9.30;99.90
73955;DHT22;62306;52.516;13.290;2023-04-16T04:19:20;9.30;99.90
73955;DHT22;62306;52.516;13.290;2023-04-16T04:21:47;9.30;99.90
73955;DHT22;62306;52.516;13.290;2023-04-16T04:24:14;9.30;99.90
73955;DHT22;62306;52.516;13.290;2023-04-16T04:26:41;9.30;99.90
73955;DHT22;62306;52.516;13.290;2023-04-16T04:29:08;9.20;99.90
73955;DHT22;62306;52.516;13.290;2023-04-16T04:31:36;9.20;99.90
73955;DHT22;62306;52.516;13.290;2023-04-16T04:34:03;9.20;99.90
73955;DHT22;62306;52.516;13.290;2023-04-16T04:36:30;9.20;99.90
73955;DHT22;62306;52.516;13.290;2023-04-16T04:38:57;9.30;99.90
73955;DHT22;62306;52.516;13.290;2023-04-16T04:41:24;9.20;99.90
73955;DHT22;62306;52.516;13.290;2023-04-16T04:43:51;9.20;99.90
73955;DHT22;62306;52.516;13.290;2023-04-16T04:46:18;9.20;99.90
73955;DHT22;62306;52.516;13.290;2023-04-16T04:48:47;9.20;99.90
73955;DHT22;62306;52.516;13.290;2023-04-16T04:51:14;9.20;99.90
73955;DHT22;62306;52.516;13.290;2023-04-16T04:53:41;9.20;99.90
73955;DHT22;62306;52.516;13.290;2023-04-16T04:56:08;9.30;99.90
73955;DHT22;62306;52.516;13.290;2023-04-16T04:58:35;9.30;99.90
73955;DHT22;62306;52.516;13.290;2023-04-16T05:01:01;9.30;99.90
73955;DHT22;62306;52.516;13.290;2023-04-16T05:03:28;9.20;99.90
73955;DHT22;62306;52.516;13.290;2023-04-16T05:05:57;9.30;99.90
73955;DHT22;62306;52.516;13.290;2023-04-16T05:08:24;9.30;99.90
73955;DHT22;62306;52.516;13.290;2023-04-16T05:10:51;9.20;99.90
73955;DHT22;62306;52.516;13.290;2023-04-16T05:13:19;9.20;99.90
73955;DHT22;62306;52.516;13.290;2023-04-16T05:15:46;9.20;99.90
73955;DHT22;62306;52.516;13.290;2023-04-16T05:18:13;9.20;99.90
73955;DHT22;62306;52.516;13.290;2023-04-16T05:20:40;9.20;99.90
73955;DHT22;62306;52.516;13.290;2023-04-16T05:23:08;9.20;99.90
73955;DHT22;62306;52.516;13.290;2023-04-16T05:25:35;9.20;99.90
73955;DHT22;62306;52.516;13.290;2023-04-16T05:28:02;9.20;99.90
73955;DHT22;62306;52.516;13.290;2023-04-16T05:30:29;9.30;99.90
73955;DHT22;62306;52.516;13.290;2023-04-16T05:32:56;9.30;99.90
73955;DHT22;62306;52.516;13.290;2023-04-16T05:35:23;9.30;99.90
73955;DHT22;62306;52.516;13.290;2023-04-16T05:37:50;9.30;99.90
73955;DHT22;62306;52.516;13.290;2023-04-16T05:40:18;9.30;99.90
73955;DHT22;62306;52.516;13.290;2023-04-16T05:42:45;9.30;99.90
73955;DHT22;62306;52.516;13.290;2023-04-16T05:45:12;9.30;99.90
73955;DHT22;62306;52.516;13.290;2023-04-16T05:47:39;9.30;99.90
73955;DHT22;62306;52.516;13.290;2023-04-16T05:50:06;9.30;99.90
73955;DHT22;62306;52.516;13.290;2023-04-16T05:52:33;9.30;99.90
73955;DHT22;62306;52.516;13.290;2023-04-16T05:55:01;9.40;99.90
73955;DHT22;62306;52.516;13.290;2023-04-16T05:57:29;9.40;99.90
73955;DHT22;62306;52.516;13.290;2023-04-16T05:59:56;9.40;99.90
73955;DHT22;62306;52.516;13.290;2023-04-16T06:02:23;9.40;99.90
73955;DHT22;62306;52.516;13.290;2023-04-16T06:04:50;9.40;99.90
73955;DHT22;62306;52.516;13.290;2023-04-16T06:07:17;9.40;99.90
73955;DHT22;62306;52.516;13.290;2023-04-16T06:09:44;9.50;99.90
73955;DHT22;62306;52.516;13.290;2023-04-16T06:12:11;9.60;99.90
73955;DHT22;62306;52.516;13.290;2023-04-16T06:14:39;9.60;99.90
73955;DHT22;62306;52.516;13.290;2023-04-16T06:17:06;9.60;99.90
73955;DHT22;62306;52.516;13.290;2023-04-16T06:19:33;9.70;99.90
73955;DHT22;62306;52.516;13.290;2023-04-16T06:22:00;9.70;99.90
73955;DHT22;62306;52.516;13.290;2023-04-16T06:24:27;9.70;99.90
73955;DHT22;62306;52.516;13.290;2023-04-16T06:26:54;9.70;99.90
73955;DHT22;62306;52.516;13.290;2023-04-16T06:29:22;9.80;99.90
73955;DHT22;62306;52.516;13.290;2023-04-16T06:31:50;9.80;99.90
73955;DHT22;62306;52.516;13.290;2023-04-16T06:34:17;9.80;99.90
73955;DHT22;62306;52.516;13.290;2023-04-16T06:36:44;9.80;99.90
73955;DHT22;62306;52.516;13.290;2023-04-16T06:39:11;9.80;99.90
73955;DHT22;62306;52.516;13.290;2023-04-16T06:41:38;9.80;99.90
73955;DHT22;62306;52.516;13.290;2023-04-16T06:44:05;9.80;99.90
73955;DHT22;62306;52.516;13.290;2023-04-16T06:46:31;9.80;99.90
73955;DHT22;62306;52.516;13.290;2023-04-16T06:49:00;9.80;99.90
73955;DHT22;62306;52.516;13.290;2023-04-16T06:51:27;9.80;99.90
73955;DHT22;62306;52.516;13.290;2023-04-16T06:53:54;9.70;99.90
73955;DHT22;62306;52.516;13.290;2023-04-16T06:56:21;9.70;99.90
73955;DHT22;62306;52.516;13.290;2023-04-16T06:58:49;9.70;99.90
73955;DHT22;62306;52.516;13.290;2023-04-16T07:01:16;9.80;99.90
73955;DHT22;62306;52.516;13.290;2023-04-16T07:03:43;9.80;99.90
73955;DHT22;62306;52.516;13.290;2023-04-16T07:06:11;9.80;99.90
73955;DHT22;62306;52.516;13.290;2023-04-16T07:08:38;9.90;99.90
73955;DHT22;62306;52.516;13.290;2023-04-16T07:11:08;9.90;99.90
73955;DHT22;62306;52.516;13.290;2023-04-16T07:13:36;9.90;99.90
73955;DHT22;62306;52.516;13.290;2023-04-16T07:16:04;9.90;99.90
73955;DHT22;62306;52.516;13.290;2023-04-16T07:18:34;9.90;99.90
73955;DHT22;62306;52.516;13.290;2023-04-16T07:21:02;9.90;99.90
73955;DHT22;62306;52.516;13.290;2023-04-16T07:23:31;9.90;99.90
73955;DHT22;62306;52.516;13.290;2023-04-16T07:26:20;9.90;99.90
73955;DHT22;62306;52.516;13.290;2023-04-16T07:29:10;9.90;99.90
73955;DHT22;62306;52.516;13.290;2023-04-16T07:31:50;10.00;99.90
73955;DHT22;62306;52.516;13.290;2023-04-16T07:34:18;10.00;99.90
73955;DHT22;62306;52.516;13.290;2023-04-16T07:36:46;10.00;99.90
73955;DHT22;62306;52.516;13.290;2023-04-16T07:39:17;9.90;99.90
73955;DHT22;62306;52.516;13.290;2023-04-16T07:41:45;9.90;99.90
73955;DHT22;62306;52.516;13.290;2023-04-16T07:44:16;9.90;99.90
73955;DHT22;62306;52.516;13.290;2023-04-16T07:46:43;9.90;99.90
73955;DHT22;62306;52.516;13.290;2023-04-16T07:49:11;9.50;99.90
73955;DHT22;62306;52.516;13.290;2023-04-16T07:51:38;10.00;99.90
73955;DHT22;62306;52.516;13.290;2023-04-16T07:54:06;9.90;99.90
73955;DHT22;62306;52.516;13.290;2023-04-16T07:56:34;10.00;99.90
73955;DHT22;62306;52.516;13.290;2023-04-16T07:59:02;9.90;99.90
73955;DHT22;62306;52.516;13.290;2023-04-16T08:01:32;9.90;99.90
73955;DHT22;62306;52.516;13.290;2023-04-16T08:03:59;9.90;99.90
73955;DHT22;62306;52.516;13.290;2023-04-16T08:06:27;9.90;99.90
73955;DHT22;62306;52.516;13.290;2023-04-16T08:08:55;9.90;99.90
73955;DHT22;62306;52.516;13.290;2023-04-16T08:11:23;9.80;99.90
73955;DHT22;62306;52.516;13.290;2023-04-16T08:13:58;9.90;99.90
73955;DHT22;62306;52.516;13.290;2023-04-16T08:16:27;9.90;99.90
73955;DHT22;62306;52.516;13.290;2023-04-16T08:18:55;10.00;99.90
73955;DHT22;62306;52.516;13.290;2023-04-16T08:21:22;10.00;99.90
73955;DHT22;62306;52.516;13.290;2023-04-16T08:23:51;10.00;99.90
73955;DHT22;62306;52.516;13.290;2023-04-16T08:26:18;10.00;99.90
73955;DHT22;62306;52.516;13.290;2023-04-16T08:28:46;10.00;99.90
73955;DHT22;62306;52.516;13.290;2023-04-16T08:31:15;10.00;99.90
73955;DHT22;62306;52.516;13.290;2023-04-16T08:33:42;10.00;99.90
73955;DHT22;62306;52.516;13.290;2023-04-16T08:36:10;10.10;99.90
73955;DHT22;62306;52.516;13.290;2023-04-16T08:38:38;10.10;99.90
73955;DHT22;62306;52.516;13.290;2023-04-16T08:41:08;10.20;99.90
73955;DHT22;62306;52.516;13.290;2023-04-16T08:43:41;10.30;99.90
73955;DHT22;62306;52.516;13.290;2023-04-16T08:46:09;10.20;99.90
73955;DHT22;62306;52.516;13.290;2023-04-16T08:48:38;10.10;99.90
73955;DHT22;62306;52.516;13.290;2023-04-16T08:51:09;10.10;99.90
73955;DHT22;62306;52.516;13.290;2023-04-16T08:53:42;10.10;99.90
73955;DHT22;62306;52.516;13.290;2023-04-16T08:56:13;10.00;99.90
73955;DHT22;62306;52.516;13.290;2023-04-16T08:58:40;9.90;99.90
73955;DHT22;62306;52.516;13.290;2023-04-16T09:01:08;9.90;99.90
73955;DHT22;62306;52.516;13.290;2023-04-16T09:03:36;9.90;99.90
73955;DHT22;62306;52.516;13.290;2023-04-16T09:06:05;9.90;99.90
73955;DHT22;62306;52.516;13.290;2023-04-16T09:08:33;10.00;99.90
73955;DHT22;62306;52.516;13.290;2023-04-16T09:11:02;10.10;99.90
73955;DHT22;62306;52.516;13.290;2023-04-16T09:13:30;10.10;99.90
73955;DHT22;62306;52.516;13.290;2023-04-16T09:15:57;10.20;99.90
73955;DHT22;62306;52.516;13.290;2023-04-16T09:18:25;10.30;99.90
73955;DHT22;62306;52.516;13.290;2023-04-16T09:20:53;10.40;99.90
73955;DHT22;62306;52.516;13.290;2023-04-16T09:23:22;10.50;99.90
73955;DHT22;62306;52.516;13.290;2023-04-16T09:25:49;10.50;99.90
73955;DHT22;62306;52.516;13.290;2023-04-16T09:28:37;10.60;99.90
73955;DHT22;62306;52.516;13.290;2023-04-16T09:31:08;10.60;99.90
73955;DHT22;62306;52.516;13.290;2023-04-16T09:33:35;10.50;99.90
73955;DHT22;62306;52.516;13.290;2023-04-16T09:36:03;10.40;99.90
73955;DHT22;62306;52.516;13.290;2023-04-16T09:38:47;10.40;99.90
73955;DHT22;62306;52.516;13.290;2023-04-16T09:41:14;10.40;99.90
73955;DHT22;62306;52.516;13.290;2023-04-16T09:43:48;10.40;99.90
73955;DHT22;62306;52.516;13.290;2023-04-16T09:46:19;10.50;99.90
73955;DHT22;62306;52.516;13.290;2023-04-16T09:48:46;10.50;99.90
73955;DHT22;62306;52.516;13.290;2023-04-16T09:51:13;10.60;99.90
73955;DHT22;62306;52.516;13.290;2023-04-16T09:53:39;10.60;99.90
73955;DHT22;62306;52.516;13.290;2023-04-16T09:56:08;10.60;99.90
73955;DHT22;62306;52.516;13.290;2023-04-16T09:58:36;10.60;99.90
73955;DHT22;62306;52.516;13.290;2023-04-16T10:01:06;10.60;99.90
73955;DHT22;62306;52.516;13.290;2023-04-16T10:03:35;10.60;99.90
73955;DHT22;62306;52.516;13.290;2023-04-16T10:06:07;10.60;99.90
73955;DHT22;62306;52.516;13.290;2023-04-16T10:08:35;10.60;99.90
73955;DHT22;62306;52.516;13.290;2023-04-16T10:11:02;10.70;99.90
73955;DHT22;62306;52.516;13.290;2023-04-16T10:13:31;10.60;99.90
73955;DHT22;62306;52.516;13.290;2023-04-16T10:15:58;10.70;99.90
73955;DHT22;62306;52.516;13.290;2023-04-16T10:18:26;10.70;99.90
73955;DHT22;62306;52.516;13.290;2023-04-16T10:20:54;10.70;99.90
73955;DHT22;62306;52.516;13.290;2023-04-16T10:23:21;10.80;99.90
73955;DHT22;62306;52.516;13.290;2023-04-16T10:25:49;10.70;99.90
73955;DHT22;62306;52.516;13.290;2023-04-16T10:28:16;10.80;99.90
73955;DHT22;62306;52.516;13.290;2023-04-16T10:30:47;10.80;99.90
73955;DHT22;62306;52.516;13.290;2023-04-16T10:33:19;10.80;99.90
73955;DHT22;62306;52.516;13.290;2023-04-16T10:35:48;10.90;99.90
73955;DHT22;62306;52.516;13.290;2023-04-16T10:38:23;10.90;99.90
73955;DHT22;62306;52.516;13.290;2023-04-16T10:40:55;11.00;99.90
73955;DHT22;62306;52.516;13.290;2023-04-16T10:43:24;11.00;99.90
73955;DHT22;62306;52.516;13.290;2023-04-16T10:45:53;11.10;99.90
73955;DHT22;62306;52.516;13.290;2023-04-16T10:48:22;11.10;99.90
73955;DHT22;62306;52.516;13.290;2023-04-16T10:50:56;11.20;99.90
73955;DHT22;62306;52.516;13.290;2023-04-16T10:53:25;11.20;99.90
73955;DHT22;62306;52.516;13.290;2023-04-16T10:56:10;11.20;99.90
73955;DHT22;62306;52.516;13.290;2023-04-16T10:58:40;11.20;99.90
73955;DHT22;62306;52.516;13.290;2023-04-16T11:01:10;11.30;99.90
73955;DHT22;62306;52.516;13.290;2023-04-16T11:03:43;11.40;99.90
73955;DHT22;62306;52.516;13.290;2023-04-16T11:06:11;11.60;99.90
73955;DHT22;62306;52.516;13.290;2023-04-16T11:08:39;11.90;99.90
73955;DHT22;62306;52.516;13.290;2023-04-16T11:11:08;12.10;99.90
73955;DHT22;62306;52.516;13.290;2023-04-16T11:13:36;12.30;99.90
73955;DHT22;62306;52.516;13.290;2023-04-16T11:16:03;12.40;99.90
73955;DHT22;62306;52.516;13.290;2023-04-16T11:18:32;12.40;99.90
73955;DHT22;62306;52.516;13.290;2023-04-16T11:20:59;12.50;99.90
73955;DHT22;62306;52.516;13.290;2023-04-16T11:23:26;12.50;99.90
73955;DHT22;62306;52.516;13.290;2023-04-16T11:25:53;12.50;99.90
73955;DHT22;62306;52.516;13.290;2023-04-16T11:28:32;12.40;99.90
73955;DHT22;62306;52.516;13.290;2023-04-16T11:31:09;12.20;99.90
73955;DHT22;62306;52.516;13.290;2023-04-16T11:33:38;12.00;99.90
73955;DHT22;62306;52.516;13.290;2023-04-16T11:36:05;12.00;99.90
73955;DHT22;62306;52.516;13.290;2023-04-16T11:38:35;11.90;99.90
73955;DHT22;62306;52.516;13.290;2023-04-16T11:41:03;11.80;99.90
73955;DHT22;62306;52.516;13.290;2023-04-16T11:43:30;11.80;99.90
73955;DHT22;62306;52.516;13.290;2023-04-16T11:45:57;11.70;99.90
73955;DHT22;62306;52.516;13.290;2023-04-16T11:48:25;11.70;99.90
73955;DHT22;62306;52.516;13.290;2023-04-16T11:51:12;11.70;99.90
73955;DHT22;62306;52.516;13.290;2023-04-16T11:53:45;11.70;99.90
73955;DHT22;62306;52.516;13.290;2023-04-16T11:56:12;11.70;99.90
73955;DHT22;62306;52.516;13.290;2023-04-16T11:58:40;11.70;99.90
73955;DHT22;62306;52.516;13.290;2023-04-16T12:01:07;11.70;99.90
73955;DHT22;62306;52.516;13.290;2023-04-16T12:03:39;11.80;99.90
73955;DHT22;62306;52.516;13.290;2023-04-16T12:06:09;11.60;99.90
73955;DHT22;62306;52.516;13.290;2023-04-16T12:08:37;11.50;99.90
73955;DHT22;62306;52.516;13.290;2023-04-16T12:11:04;11.50;99.90
73955;DHT22;62306;52.516;13.290;2023-04-16T12:13:31;11.50;99.90
73955;DHT22;62306;52.516;13.290;2023-04-16T12:16:17;11.50;99.90
73955;DHT22;62306;52.516;13.290;2023-04-16T12:19:00;11.40;99.90
73955;DHT22;62306;52.516;13.290;2023-04-16T12:21:38;11.30;99.90
73955;DHT22;62306;52.516;13.290;2023-04-16T12:24:08;11.20;99.90
73955;DHT22;62306;52.516;13.290;2023-04-16T12:26:41;11.20;99.90
73955;DHT22;62306;52.516;13.290;2023-04-16T12:29:16;11.20;99.90
73955;DHT22;62306;52.516;13.290;2023-04-16T12:31:44;11.20;99.90
73955;DHT22;62306;52.516;13.290;2023-04-16T12:34:11;11.20;99.90
73955;DHT22;62306;52.516;13.290;2023-04-16T12:36:40;11.30;99.90
73955;DHT22;62306;52.516;13.290;2023-04-16T12:39:08;11.20;99.90
73955;DHT22;62306;52.516;13.290;2023-04-16T12:41:37;11.30;99.90
73955;DHT22;62306;52.516;13.290;2023-04-16T12:44:06;11.30;99.90
73955;DHT22;62306;52.516;13.290;2023-04-16T12:46:37;11.30;99.90
73955;DHT22;62306;52.516;13.290;2023-04-16T12:49:04;11.30;99.90
73955;DHT22;62306;52.516;13.290;2023-04-16T12:51:31;11.30;99.90
73955;DHT22;62306;52.516;13.290;2023-04-16T12:53:59;11.30;99.90
73955;DHT22;62306;52.516;13.290;2023-04-16T12:56:27;11.20;99.90
73955;DHT22;62306;52.516;13.290;2023-04-16T12:58:56;11.20;99.90
73955;DHT22;62306;52.516;13.290;2023-04-16T13:01:23;11.20;99.90
73955;DHT22;62306;52.516;13.290;2023-04-16T13:03:50;11.20;99.90
73955;DHT22;62306;52.516;13.290;2023-04-16T13:06:17;11.10;99.90
73955;DHT22;62306;52.516;13.290;2023-04-16T13:08:44;11.10;99.90
73955;DHT22;62306;52.516;13.290;2023-04-16T13:11:11;11.00;99.90
73955;DHT22;62306;52.516;13.290;2023-04-16T13:13:39;11.00;99.90
73955;DHT22;62306;52.516;13.290;2023-04-16T13:16:06;11.00;99.90
73955;DHT22;62306;52.516;13.290;2023-04-16T13:18:34;11.00;99.90
73955;DHT22;62306;52.516;13.290;2023-04-16T13:21:02;11.00;99.90
73955;DHT22;62306;52.516;13.290;2023-04-16T13:23:29;11.00;99.90
73955;DHT22;62306;52.516;13.290;2023-04-16T13:25:56;11.10;99.90
73955;DHT22;62306;52.516;13.290;2023-04-16T13:28:23;11.10;99.90
73955;DHT22;62306;52.516;13.290;2023-04-16T13:30:52;11.20;99.90
73955;DHT22;62306;52.516;13.290;2023-04-16T13:33:19;11.20;99.90
73955;DHT22;62306;52.516;13.290;2023-04-16T13:35:46;11.30;99.90
73955;DHT22;62306;52.516;13.290;2023-04-16T13:38:14;11.40;99.90
73955;DHT22;62306;52.516;13.290;2023-04-16T13:40:41;11.40;99.90
73955;DHT22;62306;52.516;13.290;2023-04-16T13:43:08;11.50;99.90
73955;DHT22;62306;52.516;13.290;2023-04-16T13:45:36;11.50;99.90
73955;DHT22;62306;52.516;13.290;2023-04-16T13:48:05;11.60;99.90
73955;DHT22;62306;52.516;13.290;2023-04-16T13:50:32;11.80;99.90
73955;DHT22;62306;52.516;13.290;2023-04-16T13:52:59;11.90;99.90
73955;DHT22;62306;52.516;13.290;2023-04-16T13:55:27;11.90;99.90
73955;DHT22;62306;52.516;13.290;2023-04-16T13:57:54;11.90;99.90
73955;DHT22;62306;52.516;13.290;2023-04-16T14:00:21;11.90;99.90
73955;DHT22;62306;52.516;13.290;2023-04-16T14:02:48;11.90;99.90
73955;DHT22;62306;52.516;13.290;2023-04-16T14:05:16;12.00;99.90
73955;DHT22;62306;52.516;13.290;2023-04-16T14:07:44;12.10;99.90
73955;DHT22;62306;52.516;13.290;2023-04-16T14:10:11;12.10;99.90
73955;DHT22;62306;52.516;13.290;2023-04-16T14:12:38;12.00;99.90
73955;DHT22;62306;52.516;13.290;2023-04-16T14:15:05;12.00;99.90
73955;DHT22;62306;52.516;13.290;2023-04-16T14:17:34;11.90;99.90
73955;DHT22;62306;52.516;13.290;2023-04-16T14:20:01;11.90;99.90
73955;DHT22;62306;52.516;13.290;2023-04-16T14:22:31;11.80;99.90
73955;DHT22;62306;52.516;13.290;2023-04-16T14:24:58;11.70;99.90
73955;DHT22;62306;52.516;13.290;2023-04-16T14:27:25;11.60;99.90
73955;DHT22;62306;52.516;13.290;2023-04-16T14:29:53;11.70;99.90
73955;DHT22;62306;52.516;13.290;2023-04-16T14:32:20;11.70;99.90
73955;DHT22;62306;52.516;13.290;2023-04-16T14:34:47;11.70;99.90
73955;DHT22;62306;52.516;13.290;2023-04-16T14:37:15;11.80;99.90
73955;DHT22;62306;52.516;13.290;2023-04-16T14:39:43;11.90;99.90
73955;DHT22;62306;52.516;13.290;2023-04-16T14:42:10;12.10;99.90
73955;DHT22;62306;52.516;13.290;2023-04-16T14:44:37;12.20;99.90
73955;DHT22;62306;52.516;13.290;2023-04-16T14:47:04;12.30;99.90
73955;DHT22;62306;52.516;13.290;2023-04-16T14:49:33;12.40;99.90
73955;DHT22;62306;52.516;13.290;2023-04-16T14:52:00;12.40;99.90
73955;DHT22;62306;52.516;13.290;2023-04-16T14:54:30;12.30;99.90
73955;DHT22;62306;52.516;13.290;2023-04-16T14:56:58;12.20;99.90
73955;DHT22;62306;52.516;13.290;2023-04-16T14:59:26;12.10;99.90
73955;DHT22;62306;52.516;13.290;2023-04-16T15:01:54;12.00;99.90
73955;DHT22;62306;52.516;13.290;2023-04-16T15:04:21;12.00;99.90
73955;DHT22;62306;52.516;13.290;2023-04-16T15:06:49;11.90;99.90
73955;DHT22;62306;52.516;13.290;2023-04-16T15:09:16;11.90;99.90
73955;DHT22;62306;52.516;13.290;2023-04-16T15:11:43;11.80;99.90
73955;DHT22;62306;52.516;13.290;2023-04-16T15:14:12;11.70;99.90
73955;DHT22;62306;52.516;13.290;2023-04-16T15:16:38;11.70;99.90
73955;DHT22;62306;52.516;13.290;2023-04-16T15:19:05;11.70;99.90
73955;DHT22;62306;52.516;13.290;2023-04-16T15:21:32;11.60;99.90
73955;DHT22;62306;52.516;13.290;2023-04-16T15:23:59;11.60;99.90
73955;DHT22;62306;52.516;13.290;2023-04-16T15:26:26;11.50;99.90
73955;DHT22;62306;52.516;13.290;2023-04-16T15:28:53;11.30;99.90